Time;durP1;ratioP1;P1;durP2;ratioP2;P2;SDS_P1;SDS_P2;PMS_P1;PMS_P2;Temp;Humidity;BMP_temperature;BMP_pressure;BME280_temperature;BME280_humidity;BME280_pressure;Samples;Min_cycle;Max_cycle;Signal;HPM_P1;HPM_P2
2022/11/09 00:00:42;;;;;;;2.90;1.73;;;12.80;99.90;;;;;;4388695;32;20081;-76
2022/11/09 00:03:07;;;;;;;0.62;0.62;;;12.90;99.90;;;;;;4385245;32;20222;-77
2022/11/09 00:05:33;;;;;;;0.40;0.40;;;12.80;99.90;;;;;;4376592;32;20125;-77
2022/11/09 00:07:59;;;;;;;0.40;0.40;;;12.80;99.90;;;;;;4386541;32;20092;-76
2022/11/09 00:10:26;;;;;;;0.82;0.82;;;12.80;99.90;;;;;;4393750;32;20066;-75
2022/11/09 00:12:52;;;;;;;0.57;0.57;;;12.80;99.90;;;;;;4393132;32;20104;-74
2022/11/09 00:15:17;;;;;;;0.30;0.30;;;12.80;99.90;;;;;;4394987;32;20082;-75
2022/11/09 00:17:43;;;;;;;0.90;0.50;;;12.90;99.90;;;;;;4394865;32;20149;-76
2022/11/09 00:20:09;;;;;;;0.43;0.43;;;12.90;99.90;;;;;;4396970;32;20090;-75
2022/11/09 00:22:35;;;;;;;0.73;0.73;;;12.90;99.90;;;;;;4394518;32;20177;-76
2022/11/09 00:25:00;;;;;;;0.30;0.30;;;12.90;99.90;;;;;;4395365;32;20112;-75
2022/11/09 00:27:26;;;;;;;0.40;0.40;;;13.00;99.90;;;;;;4391261;32;20066;-74
2022/11/09 00:29:52;;;;;;;1.00;0.60;;;13.00;99.90;;;;;;4392726;32;20073;-76
2022/11/09 00:32:17;;;;;;;0.73;0.52;;;12.90;99.90;;;;;;4393089;32;20069;-78
2022/11/09 00:34:43;;;;;;;4.18;1.50;;;12.90;99.90;;;;;;4377942;32;20078;-76
2022/11/09 00:37:08;;;;;;;0.40;0.40;;;12.90;99.90;;;;;;4385689;32;20075;-76
2022/11/09 00:39:34;;;;;;;0.40;0.40;;;12.80;99.90;;;;;;4394226;32;20545;-78
2022/11/09 00:41:59;;;;;;;0.50;0.50;;;12.80;99.90;;;;;;4394207;32;20562;-77
2022/11/09 00:44:25;;;;;;;0.32;0.32;;;12.80;99.90;;;;;;4392974;32;20074;-75
2022/11/09 00:46:50;;;;;;;0.62;0.62;;;12.90;99.90;;;;;;4395255;32;20113;-75
2022/11/09 00:49:16;;;;;;;0.90;0.88;;;12.90;99.90;;;;;;4394459;32;20111;-76
2022/11/09 00:51:41;;;;;;;0.45;0.45;;;12.90;99.90;;;;;;4393562;32;20082;-75
2022/11/09 00:54:07;;;;;;;1.17;0.80;;;12.90;99.90;;;;;;4392812;32;20093;-75
2022/11/09 00:56:32;;;;;;;0.73;0.73;;;12.90;99.90;;;;;;4392699;32;20129;-77
2022/11/09 00:58:58;;;;;;;0.50;0.50;;;12.90;99.90;;;;;;4390494;32;20416;-76
2022/11/09 01:01:24;;;;;;;0.65;0.65;;;12.90;99.90;;;;;;4395420;32;20085;-75
2022/11/09 01:03:49;;;;;;;0.40;0.40;;;12.90;99.90;;;;;;4385230;32;20094;-76
2022/11/09 01:06:17;;;;;;;1.35;1.10;;;12.90;99.90;;;;;;4380849;32;20644;-76
2022/11/09 01:08:44;;;;;;;1.98;1.08;;;12.80;99.90;;;;;;4393049;32;20089;-75
2022/11/09 01:11:11;;;;;;;0.30;0.30;;;12.90;99.90;;;;;;4394624;32;20097;-76
2022/11/09 01:13:43;;;;;;;0.68;0.50;;;12.80;99.90;;;;;;4393671;32;20073;-76
2022/11/09 01:16:11;;;;;;;1.48;0.60;;;12.70;99.90;;;;;;4380740;32;20090;-75
2022/11/09 01:18:37;;;;;;;1.27;0.62;;;12.70;99.90;;;;;;4392679;32;20486;-75
2022/11/09 01:21:10;;;;;;;0.60;0.60;;;12.60;99.90;;;;;;4394760;32;20069;-76
2022/11/09 01:23:36;;;;;;;0.35;0.35;;;12.60;99.90;;;;;;4395531;32;20082;-76
2022/11/09 01:26:05;;;;;;;0.50;0.50;;;12.70;99.90;;;;;;4394948;32;20513;-75
2022/11/09 01:28:31;;;;;;;0.73;0.73;;;12.60;99.90;;;;;;4392168;32;20597;-76
2022/11/09 01:31:02;;;;;;;0.65;0.57;;;12.40;99.90;;;;;;4393882;32;20507;-75
2022/11/09 01:33:34;;;;;;;0.43;0.43;;;12.30;99.90;;;;;;4388544;32;20073;-77
2022/11/09 01:36:09;;;;;;;0.50;0.50;;;12.30;99.90;;;;;;4381085;32;20090;-78
2022/11/09 01:38:36;;;;;;;0.40;0.40;;;12.20;99.90;;;;;;4391378;32;20416;-75
2022/11/09 01:41:03;;;;;;;1.02;0.95;;;12.10;99.90;;;;;;4394275;32;20062;-74
2022/11/09 01:43:28;;;;;;;0.40;0.40;;;11.90;99.90;;;;;;4393826;32;20109;-76
2022/11/09 01:46:19;;;;;;;0.52;0.50;;;11.90;99.90;;;;;;4393566;32;20156;-75
2022/11/09 01:48:52;;;;;;;0.37;0.37;;;11.80;99.90;;;;;;4378093;32;20581;-74
2022/11/09 01:51:26;;;;;;;0.45;0.45;;;11.80;99.90;;;;;;4391271;32;20074;-74
2022/11/09 01:53:58;;;;;;;0.40;0.40;;;11.90;99.90;;;;;;4389191;32;20062;-74
2022/11/09 01:56:25;;;;;;;0.40;0.40;;;11.90;99.90;;;;;;4391507;32;20462;-74
2022/11/09 01:58:57;;;;;;;0.50;0.50;;;11.80;99.90;;;;;;4391984;32;20528;-75
2022/11/09 02:01:24;;;;;;;0.55;0.50;;;11.90;99.90;;;;;;4390417;32;20090;-77
2022/11/09 02:04:06;;;;;;;0.50;0.50;;;11.80;99.90;;;;;;4381151;32;20447;-75
2022/11/09 02:06:32;;;;;;;0.40;0.40;;;11.70;99.90;;;;;;4362049;32;20125;-80
2022/11/09 02:09:11;;;;;;;0.50;0.50;;;11.70;99.90;;;;;;4393192;32;20208;-75
2022/11/09 02:11:37;;;;;;;0.65;0.65;;;11.70;99.90;;;;;;4390893;32;20097;-76
2022/11/09 02:14:05;;;;;;;0.47;0.43;;;11.60;99.90;;;;;;4389728;32;20066;-75
2022/11/09 02:16:32;;;;;;;0.60;0.60;;;11.60;99.90;;;;;;4390342;32;20133;-76
2022/11/09 02:19:00;;;;;;;0.40;0.40;;;11.60;99.90;;;;;;4393213;32;20070;-76
2022/11/09 02:21:28;;;;;;;0.93;0.65;;;11.50;99.90;;;;;;4391509;32;20128;-75
2022/11/09 02:23:54;;;;;;;0.30;0.30;;;11.50;99.90;;;;;;4391379;32;20070;-75
2022/11/09 02:26:26;;;;;;;0.50;0.50;;;11.50;99.90;;;;;;4393272;32;20077;-75
2022/11/09 02:28:54;;;;;;;0.73;0.57;;;11.60;99.90;;;;;;4390213;32;20079;-75
2022/11/09 02:31:24;;;;;;;0.20;0.20;;;11.80;99.90;;;;;;4389711;32;20094;-77
2022/11/09 02:33:54;;;;;;;0.53;0.50;;;11.90;99.90;;;;;;4381764;32;20329;-78
2022/11/09 02:36:21;;;;;;;0.52;0.50;;;11.90;99.90;;;;;;4376341;32;20188;-76
2022/11/09 02:38:47;;;;;;;0.40;0.40;;;11.90;99.90;;;;;;4392136;32;20069;-75
2022/11/09 02:41:15;;;;;;;1.05;1.00;;;11.90;99.90;;;;;;4391049;32;20137;-75
2022/11/09 02:43:40;;;;;;;0.50;0.50;;;11.90;99.90;;;;;;4392596;32;20140;-75
2022/11/09 02:46:06;;;;;;;0.50;0.50;;;11.90;99.90;;;;;;4392350;32;20070;-75
2022/11/09 02:48:31;;;;;;;0.40;0.40;;;11.80;99.90;;;;;;4392437;32;20074;-76
2022/11/09 02:50:57;;;;;;;0.40;0.40;;;11.80;99.90;;;;;;4392740;32;20471;-76
2022/11/09 02:53:22;;;;;;;0.40;0.40;;;11.90;99.90;;;;;;4390626;32;20094;-76
2022/11/09 02:55:48;;;;;;;0.60;0.60;;;11.90;99.90;;;;;;4389498;32;20082;-75
2022/11/09 02:58:15;;;;;;;0.32;0.32;;;12.00;99.90;;;;;;4392757;32;20065;-75
2022/11/09 03:00:41;;;;;;;0.40;0.40;;;12.10;99.90;;;;;;4392327;32;20065;-75
2022/11/09 03:03:06;;;;;;;0.40;0.40;;;12.00;99.90;;;;;;4387185;32;20547;-76
2022/11/09 03:05:32;;;;;;;0.30;0.30;;;12.00;99.90;;;;;;4376238;32;20083;-77
2022/11/09 03:08:01;;;;;;;0.40;0.40;;;12.00;99.90;;;;;;4386459;32;20117;-77
2022/11/09 03:10:27;;;;;;;0.40;0.40;;;12.00;99.90;;;;;;4392247;32;20120;-75
2022/11/09 03:12:59;;;;;;;1.75;0.85;;;11.90;99.90;;;;;;4393549;32;20090;-78
2022/11/09 03:15:25;;;;;;;0.37;0.37;;;11.90;99.90;;;;;;4390823;32;20085;-75
2022/11/09 03:17:51;;;;;;;0.60;0.60;;;11.90;99.90;;;;;;4390902;32;20123;-74
2022/11/09 03:20:17;;;;;;;0.55;0.55;;;11.90;99.90;;;;;;4391066;32;20569;-75
2022/11/09 03:22:42;;;;;;;0.40;0.40;;;11.90;99.90;;;;;;4391117;32;20095;-75
2022/11/09 03:25:08;;;;;;;1.35;1.02;;;11.80;99.90;;;;;;4390327;32;20074;-77
2022/11/09 03:27:33;;;;;;;0.75;0.75;;;11.80;99.90;;;;;;4392786;32;20081;-74
2022/11/09 03:30:00;;;;;;;0.40;0.40;;;11.80;99.90;;;;;;4388996;32;20538;-77
2022/11/09 03:32:25;;;;;;;0.40;0.40;;;11.80;99.90;;;;;;4390706;32;20825;-77
2022/11/09 03:34:51;;;;;;;0.50;0.50;;;11.80;99.90;;;;;;4374314;32;20082;-77
2022/11/09 03:37:17;;;;;;;0.32;0.32;;;11.80;99.90;;;;;;4380348;32;20718;-76
2022/11/09 03:39:42;;;;;;;0.50;0.50;;;11.90;99.90;;;;;;4390743;32;20069;-75
2022/11/09 03:42:11;;;;;;;0.35;0.35;;;12.00;99.90;;;;;;4389705;32;20075;-76
2022/11/09 03:44:36;;;;;;;0.43;0.43;;;12.00;99.90;;;;;;4389208;32;20086;-74
2022/11/09 03:47:02;;;;;;;0.30;0.30;;;12.00;99.90;;;;;;4389398;32;20098;-75
2022/11/09 03:49:27;;;;;;;0.30;0.30;;;12.10;99.90;;;;;;4391087;32;20081;-76
2022/11/09 03:51:54;;;;;;;1.85;0.88;;;12.10;99.90;;;;;;4388325;32;20546;-76
2022/11/09 03:54:19;;;;;;;0.40;0.40;;;12.20;99.90;;;;;;4388554;32;20529;-75
2022/11/09 03:56:46;;;;;;;1.37;0.60;;;12.20;99.90;;;;;;4390141;32;20078;-75
2022/11/09 03:59:11;;;;;;;0.50;0.50;;;12.20;99.90;;;;;;4389750;32;20588;-77
2022/11/09 04:01:37;;;;;;;0.30;0.30;;;12.30;99.90;;;;;;4389749;32;20103;-77
2022/11/09 04:04:03;;;;;;;0.73;0.70;;;12.40;99.90;;;;;;4377259;32;20527;-76
2022/11/09 04:06:28;;;;;;;0.40;0.40;;;12.40;99.90;;;;;;4374020;32;20074;-78
2022/11/09 04:08:54;;;;;;;0.50;0.50;;;12.40;99.90;;;;;;4389899;32;20731;-75
2022/11/09 04:11:21;;;;;;;1.40;0.98;;;12.40;99.90;;;;;;4387910;32;20100;-75
2022/11/09 04:13:47;;;;;;;0.47;0.45;;;12.40;99.90;;;;;;4387730;32;20098;-75
2022/11/09 04:16:12;;;;;;;0.30;0.30;;;12.40;99.90;;;;;;4390985;32;20078;-77
2022/11/09 04:18:38;;;;;;;0.45;0.45;;;12.50;99.90;;;;;;4376064;32;20155;-76
2022/11/09 04:21:04;;;;;;;0.43;0.43;;;12.40;99.90;;;;;;4386664;32;20086;-74
2022/11/09 04:23:33;;;;;;;0.40;0.40;;;12.40;99.90;;;;;;4392121;32;20200;-75
2022/11/09 04:25:58;;;;;;;0.50;0.50;;;12.40;99.90;;;;;;4386861;32;20179;-77
2022/11/09 04:28:24;;;;;;;6.43;0.80;;;12.50;99.90;;;;;;4392015;32;20098;-77
2022/11/09 04:30:50;;;;;;;0.52;0.52;;;12.40;99.90;;;;;;4392079;32;20166;-75
2022/11/09 04:33:21;;;;;;;0.60;0.52;;;12.40;99.90;;;;;;4382348;32;20518;-77
2022/11/09 04:35:46;;;;;;;0.30;0.30;;;12.20;99.90;;;;;;4371765;32;20149;-77
2022/11/09 04:38:13;;;;;;;3.75;0.77;;;12.30;99.90;;;;;;4387216;32;20526;-76
2022/11/09 04:40:39;;;;;;;0.40;0.40;;;12.30;99.90;;;;;;4389653;32;20107;-75
2022/11/09 04:43:06;;;;;;;0.40;0.40;;;12.30;99.90;;;;;;4391791;32;20074;-77
2022/11/09 04:45:33;;;;;;;0.40;0.40;;;12.20;99.90;;;;;;4392183;32;20086;-75
2022/11/09 04:48:00;;;;;;;0.60;0.60;;;12.30;99.90;;;;;;4391851;32;20130;-75
2022/11/09 04:50:25;;;;;;;0.40;0.40;;;12.30;99.90;;;;;;4390799;32;20513;-76
2022/11/09 04:52:51;;;;;;;0.40;0.40;;;12.20;99.90;;;;;;4395709;32;20078;-76
2022/11/09 04:55:17;;;;;;;0.50;0.50;;;12.30;99.90;;;;;;4391514;32;20066;-76
2022/11/09 04:57:43;;;;;;;0.30;0.30;;;12.30;99.90;;;;;;4392992;32;20096;-76
2022/11/09 05:00:09;;;;;;;0.50;0.50;;;12.20;99.90;;;;;;4395189;32;20070;-75
2022/11/09 05:02:35;;;;;;;0.40;0.40;;;12.20;99.90;;;;;;4390532;32;20066;-79
2022/11/09 05:05:00;;;;;;;0.40;0.40;;;12.30;99.90;;;;;;4380233;32;20420;-79
2022/11/09 05:07:28;;;;;;;0.50;0.50;;;12.20;99.90;;;;;;4387645;32;20121;-76
2022/11/09 05:09:53;;;;;;;2.92;1.75;;;12.20;99.90;;;;;;4393207;32;20081;-75
2022/11/09 05:12:19;;;;;;;0.40;0.40;;;12.20;99.90;;;;;;4394508;32;21682;-76
2022/11/09 05:14:44;;;;;;;0.40;0.40;;;12.10;99.90;;;;;;4394831;32;20410;-78
2022/11/09 05:17:10;;;;;;;0.43;0.40;;;12.20;99.90;;;;;;4393991;32;20093;-75
2022/11/09 05:19:35;;;;;;;0.37;0.37;;;12.20;99.90;;;;;;4395762;32;20090;-78
2022/11/09 05:23:57;;;;;;;0.40;0.40;;;12.20;99.90;;;;;;4378158;32;20083;-79
2022/11/09 05:24:46;;;;;;;0.37;0.37;;;12.30;99.90;;;;;;4351423;32;20599;-79
2022/11/09 05:27:12;;;;;;;0.80;0.80;;;12.20;99.90;;;;;;4363478;32;20089;-79
2022/11/09 05:29:37;;;;;;;1.85;0.70;;;12.10;99.90;;;;;;4359410;32;20077;-79
2022/11/09 05:32:03;;;;;;;0.50;0.50;;;12.20;99.90;;;;;;4364636;32;20514;-80
2022/11/09 05:34:29;;;;;;;3.92;0.70;;;12.30;99.90;;;;;;4351341;32;20063;-80
2022/11/09 05:36:55;;;;;;;0.47;0.47;;;12.30;99.90;;;;;;4362431;32;20906;-75
2022/11/09 05:39:20;;;;;;;0.65;0.37;;;12.40;99.90;;;;;;4393744;32;21140;-75
2022/11/09 05:41:48;;;;;;;0.82;0.82;;;12.30;99.90;;;;;;4393982;32;20129;-75
2022/11/09 05:44:13;;;;;;;0.40;0.40;;;12.30;99.90;;;;;;4390316;32;20075;-76
2022/11/09 05:46:39;;;;;;;0.40;0.40;;;12.30;99.90;;;;;;4390907;32;20081;-76
2022/11/09 05:49:04;;;;;;;2.17;0.80;;;12.20;99.90;;;;;;4392715;32;20090;-75
2022/11/09 05:51:30;;;;;;;3.10;0.60;;;12.20;99.90;;;;;;4390976;32;20087;-79
2022/11/09 05:53:58;;;;;;;0.40;0.40;;;12.30;99.90;;;;;;4357721;32;20167;-79
2022/11/09 05:56:24;;;;;;;0.40;0.40;;;12.30;99.90;;;;;;4364458;32;20094;-79
2022/11/09 05:58:49;;;;;;;0.57;0.55;;;12.40;99.90;;;;;;4393397;32;20435;-79
2022/11/09 06:01:17;;;;;;;0.65;0.65;;;12.40;99.90;;;;;;4385005;32;20070;-79
2022/11/09 06:03:43;;;;;;;0.40;0.40;;;12.50;99.90;;;;;;4366173;32;20095;-79
2022/11/09 06:06:11;;;;;;;0.60;0.60;;;12.50;99.90;;;;;;4356011;32;20070;-79
2022/11/09 06:08:37;;;;;;;0.85;0.60;;;12.40;99.90;;;;;;4356605;32;20114;-81
2022/11/09 06:11:06;;;;;;;0.40;0.40;;;12.50;99.90;;;;;;4357700;32;20158;-80
2022/11/09 06:13:32;;;;;;;0.32;0.32;;;12.50;99.90;;;;;;4351329;32;20221;-81
2022/11/09 06:16:01;;;;;;;1.00;0.65;;;12.50;99.90;;;;;;4360362;32;20199;-79
2022/11/09 06:18:29;;;;;;;1.00;0.93;;;12.60;99.90;;;;;;4336183;32;20166;-79
2022/11/09 06:21:05;;;;;;;0.52;0.52;;;12.60;99.90;;;;;;4331439;32;20091;-80
2022/11/09 06:23:31;;;;;;;0.50;0.50;;;12.60;99.90;;;;;;4311674;32;20354;-80
2022/11/09 06:25:59;;;;;;;1.37;0.82;;;12.60;99.90;;;;;;4312914;32;20191;-79
2022/11/09 06:28:28;;;;;;;3.20;1.45;;;12.60;99.90;;;;;;4311729;32;20865;-80
2022/11/09 06:30:57;;;;;;;0.47;0.47;;;12.50;99.90;;;;;;4301468;32;20093;-80
2022/11/09 06:33:23;;;;;;;0.60;0.60;;;12.50;99.90;;;;;;4324064;32;20252;-81
2022/11/09 06:35:48;;;;;;;0.45;0.45;;;12.50;99.90;;;;;;4312661;32;20180;-80
2022/11/09 06:38:14;;;;;;;0.75;0.40;;;12.50;99.90;;;;;;4330220;32;20470;-81
2022/11/09 06:40:39;;;;;;;0.80;0.80;;;12.50;99.90;;;;;;4330902;32;20098;-79
2022/11/09 06:43:05;;;;;;;0.30;0.30;;;12.50;99.90;;;;;;4340386;32;20113;-79
2022/11/09 06:45:31;;;;;;;0.50;0.50;;;12.40;99.90;;;;;;4353022;32;20879;-79
2022/11/09 06:48:03;;;;;;;0.60;0.60;;;12.50;99.90;;;;;;4360996;32;20157;-80
2022/11/09 06:50:32;;;;;;;0.60;0.60;;;12.50;99.90;;;;;;4354080;32;20087;-79
2022/11/09 06:53:01;;;;;;;0.50;0.50;;;12.60;99.90;;;;;;4354369;32;20259;-78
2022/11/09 06:55:28;;;;;;;0.57;0.57;;;12.50;99.90;;;;;;4364498;32;20153;-79
2022/11/09 06:58:03;;;;;;;1.90;0.80;;;12.50;99.90;;;;;;4370779;32;20506;-78
2022/11/09 07:00:29;;;;;;;0.50;0.50;;;12.50;99.90;;;;;;4352347;32;20098;-80
2022/11/09 07:02:54;;;;;;;0.40;0.40;;;12.50;99.90;;;;;;4347736;32;20102;-79
2022/11/09 07:05:20;;;;;;;0.30;0.30;;;12.50;99.90;;;;;;4344533;32;20089;-80
2022/11/09 07:07:46;;;;;;;0.40;0.40;;;12.50;99.90;;;;;;4365831;32;20074;-77
2022/11/09 07:10:12;;;;;;;0.60;0.60;;;12.40;99.90;;;;;;4369956;32;20102;-78
2022/11/09 07:12:37;;;;;;;0.47;0.47;;;12.40;99.90;;;;;;4379259;32;20074;-78
2022/11/09 07:15:04;;;;;;;0.40;0.40;;;12.30;99.90;;;;;;4377485;32;20600;-78
2022/11/09 07:17:31;;;;;;;0.68;0.68;;;12.30;99.90;;;;;;4376497;32;20094;-78
2022/11/09 07:19:57;;;;;;;10.50;0.62;;;12.20;99.90;;;;;;4356080;32;20175;-81
2022/11/09 07:22:23;;;;;;;12.00;0.77;;;12.20;99.90;;;;;;4361121;32;20085;-78
2022/11/09 07:24:49;;;;;;;0.80;0.80;;;12.00;99.90;;;;;;4367323;32;20086;-79
2022/11/09 07:27:15;;;;;;;1.42;0.43;;;12.00;99.90;;;;;;4377621;32;20086;-76
2022/11/09 07:29:40;;;;;;;0.40;0.40;;;12.00;99.90;;;;;;4357631;32;131039;-81
2022/11/09 07:32:06;;;;;;;0.57;0.57;;;12.00;99.90;;;;;;4356452;32;20399;-80
2022/11/09 07:34:31;;;;;;;22.90;1.17;;;11.90;99.90;;;;;;4343870;32;20430;-78
2022/11/09 07:36:58;;;;;;;0.57;0.57;;;11.80;99.90;;;;;;4360164;32;20498;-78
2022/11/09 07:39:23;;;;;;;0.55;0.55;;;11.60;99.90;;;;;;4353352;32;20098;-79
2022/11/09 07:41:49;;;;;;;1.25;0.65;;;11.50;99.90;;;;;;4364733;32;20150;-78
2022/11/09 07:44:17;;;;;;;0.40;0.40;;;11.50;99.90;;;;;;4377037;32;20426;-76
2022/11/09 07:46:46;;;;;;;0.40;0.40;;;11.70;99.90;;;;;;4372750;32;20148;-77
2022/11/09 07:49:13;;;;;;;0.50;0.50;;;11.70;99.90;;;;;;4346577;32;20399;-78
2022/11/09 07:51:39;;;;;;;2.37;0.77;;;11.70;99.90;;;;;;4350055;32;20269;-78
2022/11/09 07:54:05;;;;;;;0.50;0.50;;;11.80;99.90;;;;;;4358434;32;20105;-77
2022/11/09 07:56:30;;;;;;;0.52;0.52;;;11.80;99.90;;;;;;4363151;32;20113;-78
2022/11/09 07:58:56;;;;;;;0.60;0.60;;;11.90;99.90;;;;;;4362808;32;20089;-80
2022/11/09 08:01:21;;;;;;;3.47;1.42;;;11.80;99.90;;;;;;4342946;32;20946;-78
2022/11/09 08:03:47;;;;;;;0.70;0.70;;;11.80;99.90;;;;;;4330245;32;20331;-81
2022/11/09 08:06:13;;;;;;;0.40;0.40;;;11.80;99.90;;;;;;4356189;32;20169;-79
2022/11/09 08:08:40;;;;;;;0.40;0.40;;;11.80;99.90;;;;;;4359854;32;20134;-80
2022/11/09 08:11:06;;;;;;;2.45;1.30;;;11.80;99.90;;;;;;4360124;32;20193;-79
2022/11/09 08:13:31;;;;;;;0.65;0.52;;;11.90;99.90;;;;;;4370955;32;20849;-79
2022/11/09 08:16:00;;;;;;;0.50;0.50;;;11.90;99.90;;;;;;4365947;32;20119;-78
2022/11/09 08:18:26;;;;;;;0.70;0.70;;;11.90;99.90;;;;;;4362485;32;20614;-79
2022/11/09 08:20:51;;;;;;;0.40;0.40;;;11.90;99.90;;;;;;4352634;32;20083;-78
2022/11/09 08:23:19;;;;;;;0.60;0.60;;;12.00;99.90;;;;;;4358909;32;20073;-77
2022/11/09 08:25:45;;;;;;;0.60;0.60;;;12.00;99.90;;;;;;4370519;32;20185;-81
2022/11/09 08:28:14;;;;;;;0.55;0.55;;;12.10;99.90;;;;;;4370743;32;20577;-78
2022/11/09 08:30:41;;;;;;;4.60;1.00;;;12.00;99.90;;;;;;4346681;32;20872;-80
2022/11/09 08:33:09;;;;;;;0.60;0.60;;;12.00;99.90;;;;;;4339806;32;21031;-79
2022/11/09 08:35:40;;;;;;;0.40;0.40;;;11.90;99.90;;;;;;4346314;32;20769;-79
2022/11/09 08:38:08;;;;;;;0.50;0.50;;;12.00;99.90;;;;;;4360350;32;20077;-80
2022/11/09 08:40:34;;;;;;;1.15;0.60;;;12.00;99.90;;;;;;4367747;32;20451;-79
2022/11/09 08:43:02;;;;;;;0.75;0.75;;;12.00;99.90;;;;;;4366452;32;20682;-79
2022/11/09 08:45:28;;;;;;;0.40;0.40;;;11.90;99.90;;;;;;4368575;32;21008;-78
2022/11/09 08:47:58;;;;;;;0.30;0.30;;;11.90;99.90;;;;;;4361780;32;20309;-79
2022/11/09 08:50:24;;;;;;;0.60;0.60;;;11.90;99.90;;;;;;4346543;32;20103;-79
2022/11/09 08:52:50;;;;;;;0.65;0.60;;;12.00;99.90;;;;;;4351285;32;20788;-78
2022/11/09 08:55:16;;;;;;;0.55;0.55;;;12.00;99.90;;;;;;4364276;32;20821;-78
2022/11/09 08:57:41;;;;;;;2.30;0.70;;;12.00;99.90;;;;;;4365544;32;20450;-78
2022/11/09 09:00:08;;;;;;;0.40;0.40;;;11.90;99.90;;;;;;4352482;32;20075;-79
2022/11/09 09:02:34;;;;;;;0.47;0.47;;;12.00;99.90;;;;;;4345498;32;20808;-78
2022/11/09 09:05:02;;;;;;;0.60;0.60;;;11.90;99.90;;;;;;4347929;32;20099;-80
2022/11/09 09:07:28;;;;;;;0.40;0.40;;;11.90;99.90;;;;;;4357919;32;20107;-79
2022/11/09 09:09:53;;;;;;;0.68;0.68;;;12.00;99.90;;;;;;4370125;32;20589;-80
2022/11/09 09:12:19;;;;;;;0.30;0.30;;;12.00;99.90;;;;;;4372605;32;20149;-77
2022/11/09 09:14:44;;;;;;;0.40;0.40;;;12.10;99.90;;;;;;4375153;32;20090;-77
2022/11/09 09:17:10;;;;;;;2.97;0.80;;;12.10;99.90;;;;;;4375804;32;20106;-80
2022/11/09 09:19:36;;;;;;;3.42;0.75;;;12.10;99.90;;;;;;4352993;32;20091;-79
2022/11/09 09:22:01;;;;;;;0.50;0.50;;;12.10;99.90;;;;;;4353804;32;20256;-78
2022/11/09 09:24:27;;;;;;;0.43;0.43;;;12.20;99.90;;;;;;4366132;32;20470;-79
2022/11/09 09:26:53;;;;;;;0.65;0.65;;;12.30;99.90;;;;;;4371368;32;20086;-75
2022/11/09 09:29:18;;;;;;;0.40;0.40;;;12.40;99.90;;;;;;4364252;32;20089;-78
2022/11/09 09:31:45;;;;;;;1.05;0.98;;;12.40;99.90;;;;;;4346577;32;20074;-79
2022/11/09 09:34:18;;;;;;;0.82;0.80;;;12.50;99.90;;;;;;4332156;32;20089;-80
2022/11/09 09:36:43;;;;;;;2.90;0.85;;;12.50;99.90;;;;;;4343296;32;20648;-79
2022/11/09 09:39:09;;;;;;;0.57;0.57;;;12.60;99.90;;;;;;4359969;32;20214;-79
2022/11/09 09:41:48;;;;;;;1.75;0.73;;;12.70;99.90;;;;;;4365013;32;20601;-77
2022/11/09 09:44:25;;;;;;;0.60;0.60;;;12.70;99.90;;;;;;4369934;32;20085;-77
2022/11/09 09:47:16;;;;;;;0.30;0.30;;;12.70;99.90;;;;;;4357022;32;20550;-78
2022/11/09 09:49:51;;;;;;;0.50;0.50;;;12.70;99.90;;;;;;4342450;32;20098;-78
2022/11/09 09:52:37;;;;;;;0.40;0.40;;;12.70;99.90;;;;;;4345087;32;20293;-80
2022/11/09 09:55:16;;;;;;;0.40;0.40;;;12.80;99.90;;;;;;4353877;32;20518;-78
2022/11/09 09:57:49;;;;;;;0.82;0.70;;;12.70;99.90;;;;;;4367387;32;20094;-80
2022/11/09 10:00:24;;;;;;;1.75;0.93;;;12.70;99.90;;;;;;4352725;32;20111;-79
2022/11/09 10:02:51;;;;;;;0.40;0.40;;;12.80;99.90;;;;;;4338437;32;20197;-79
2022/11/09 10:05:18;;;;;;;0.68;0.68;;;12.80;99.90;;;;;;4342896;32;20397;-79
2022/11/09 10:08:05;;;;;;;1.60;1.00;;;12.80;99.90;;;;;;4355435;32;20126;-78
2022/11/09 10:10:36;;;;;;;3.67;1.30;;;12.80;99.90;;;;;;4359287;32;20054;-78
2022/11/09 10:13:21;;;;;;;;;;;12.70;99.90;;;;;;4367734;32;20197;-78
2022/11/09 10:16:13;;;;;;;4.22;1.48;;;12.60;99.90;;;;;;4362673;32;19957;-77
2022/11/09 10:18:59;;;;;;;0.50;0.50;;;12.60;99.90;;;;;;4351676;32;20118;-80
2022/11/09 10:21:56;;;;;;;4.47;1.75;;;12.70;99.90;;;;;;4339520;32;20822;-81
2022/11/09 10:24:34;;;;;;;0.50;0.50;;;12.70;99.90;;;;;;4332555;32;20579;-78
2022/11/09 10:27:01;;;;;;;0.40;0.40;;;12.80;99.90;;;;;;4358306;32;20518;-77
2022/11/09 10:29:34;;;;;;;0.85;0.60;;;12.80;99.90;;;;;;4359465;32;20101;-80
2022/11/09 10:32:13;;;;;;;0.50;0.50;;;12.80;99.90;;;;;;4348654;32;20208;-78
2022/11/09 10:35:09;;;;;;;1.20;0.80;;;12.80;99.90;;;;;;4343296;32;20098;-80
2022/11/09 10:37:41;;;;;;;0.30;0.30;;;12.90;99.90;;;;;;4345539;32;20172;-79
2022/11/09 10:40:15;;;;;;;0.65;0.65;;;13.00;99.90;;;;;;4366285;32;20086;-79
2022/11/09 10:42:47;;;;;;;0.73;0.73;;;13.10;99.90;;;;;;4368362;32;20090;-79
2022/11/09 10:45:27;;;;;;;0.47;0.47;;;13.20;99.90;;;;;;4375546;32;20173;-80
2022/11/09 10:47:53;;;;;;;1.23;1.13;;;13.40;99.90;;;;;;4370766;32;20090;-81
2022/11/09 10:50:26;;;;;;;0.62;0.62;;;13.50;99.90;;;;;;4354931;32;20630;-79
2022/11/09 10:53:18;;;;;;;0.50;0.50;;;13.50;99.90;;;;;;4361280;32;20078;-79
2022/11/09 10:56:13;;;;;;;0.60;0.60;;;13.60;99.90;;;;;;4349378;32;20727;-79
2022/11/09 10:58:46;;;;;;;1.15;0.52;;;13.80;99.90;;;;;;4362031;32;20461;-80
2022/11/09 11:01:16;;;;;;;0.40;0.40;;;13.90;99.90;;;;;;4353206;32;20495;-79
2022/11/09 11:03:43;;;;;;;1.80;1.25;;;14.10;99.90;;;;;;4343325;32;20066;-80
2022/11/09 11:06:25;;;;;;;11.02;1.05;;;14.40;99.90;;;;;;4353597;32;20086;-80
2022/11/09 11:08:53;;;;;;;0.40;0.40;;;14.60;99.90;;;;;;4371702;32;20094;-80
2022/11/09 11:11:28;;;;;;;0.65;0.65;;;14.90;99.90;;;;;;4374179;32;20086;-80
2022/11/09 11:14:14;;;;;;;0.45;0.45;;;15.20;99.90;;;;;;4376825;32;20597;-80
2022/11/09 11:16:42;;;;;;;0.68;0.68;;;15.30;99.90;;;;;;4378050;32;20536;-81
2022/11/09 11:19:36;;;;;;;1.45;0.62;;;15.60;99.90;;;;;;4366312;32;20074;-80
2022/11/09 11:22:22;;;;;;;0.52;0.52;;;15.70;99.90;;;;;;4345879;32;20222;-80
2022/11/09 11:25:17;;;;;;;0.40;0.40;;;16.00;99.90;;;;;;4358908;32;20070;-78
2022/11/09 11:27:51;;;;;;;0.55;0.55;;;16.10;99.90;;;;;;4365996;32;20065;-81
2022/11/09 11:30:21;;;;;;;0.55;0.55;;;16.20;99.90;;;;;;4339462;32;20082;-80
2022/11/09 11:32:47;;;;;;;0.50;0.50;;;16.30;99.90;;;;;;4344324;32;20222;-79
2022/11/09 11:35:16;;;;;;;1.40;0.77;;;16.00;99.90;;;;;;4344667;32;20193;-80
2022/11/09 11:37:55;;;;;;;0.52;0.52;;;16.00;99.90;;;;;;4359068;32;20102;-79
2022/11/09 11:40:29;;;;;;;0.43;0.43;;;16.00;99.90;;;;;;4372880;32;20086;-77
2022/11/09 11:43:19;;;;;;;0.40;0.40;;;16.30;99.90;;;;;;4372041;32;20065;-79
2022/11/09 11:45:56;;;;;;;0.50;0.50;;;16.70;99.90;;;;;;4369504;32;20078;-76
2022/11/09 11:48:37;;;;;;;1.55;0.82;;;17.20;99.90;;;;;;4373638;32;20144;-80
2022/11/09 11:51:16;;;;;;;0.40;0.40;;;17.60;99.90;;;;;;4356303;32;20290;-78
2022/11/09 11:54:02;;;;;;;0.40;0.40;;;17.70;99.90;;;;;;4360746;32;20497;-80
2022/11/09 11:56:35;;;;;;;0.50;0.50;;;17.60;99.90;;;;;;4376387;32;20459;-79
2022/11/09 11:59:13;;;;;;;0.50;0.50;;;17.70;99.90;;;;;;4372886;32;20400;-79
2022/11/09 12:02:06;;;;;;;1.98;1.33;;;17.20;99.90;;;;;;4355962;32;20653;-79
2022/11/09 12:04:44;;;;;;;0.40;0.40;;;16.70;99.90;;;;;;4336070;32;20079;-80
2022/11/09 12:07:25;;;;;;;0.65;0.65;;;16.20;99.90;;;;;;4364259;32;20073;-79
2022/11/09 12:10:12;;;;;;;2.30;0.55;;;16.00;99.90;;;;;;4378541;32;20091;-78
2022/11/09 12:13:03;;;;;;;0.40;0.40;;;16.10;99.90;;;;;;4377801;32;20073;-78
2022/11/09 12:15:32;;;;;;;;;;;16.40;99.90;;;;;;4368790;32;20467;-77
2022/11/09 12:18:18;;;;;;;0.47;0.47;;;16.30;99.90;;;;;;4375955;32;19980;-78
2022/11/09 12:21:05;;;;;;;0.45;0.45;;;16.40;99.90;;;;;;4360660;32;20109;-79
2022/11/09 12:23:40;;;;;;;0.30;0.30;;;16.40;99.90;;;;;;4365504;32;20070;-80
2022/11/09 12:26:36;;;;;;;0.40;0.40;;;16.50;99.90;;;;;;4375211;32;20179;-78
2022/11/09 12:29:18;;;;;;;1.98;1.50;;;16.80;99.90;;;;;;4353627;32;20163;-80
2022/11/09 12:32:01;;;;;;;0.40;0.40;;;17.70;99.90;;;;;;4355143;32;20074;-82
2022/11/09 12:34:36;;;;;;;1.35;1.25;;;17.80;99.90;;;;;;4348484;32;20102;-80
2022/11/09 12:37:11;;;;;;;1.50;0.77;;;17.80;99.90;;;;;;4364757;32;20078;-80
2022/11/09 12:39:42;;;;;;;0.30;0.30;;;17.60;99.90;;;;;;4375748;32;20411;-78
2022/11/09 12:42:16;;;;;;;0.40;0.40;;;17.50;99.90;;;;;;4372073;32;20620;-78
2022/11/09 12:44:55;;;;;;;0.50;0.50;;;17.40;99.90;;;;;;4377682;32;20110;-79
2022/11/09 12:47:27;;;;;;;0.40;0.40;;;17.30;99.90;;;;;;4378874;32;20422;-79
2022/11/09 12:49:54;;;;;;;0.40;0.40;;;17.30;99.90;;;;;;4364143;32;20265;-79
2022/11/09 12:52:25;;;;;;;0.40;0.40;;;16.60;99.90;;;;;;4362033;32;20091;-80
2022/11/09 12:54:52;;;;;;;0.40;0.40;;;16.50;99.90;;;;;;4374924;32;20090;-80
2022/11/09 12:57:24;;;;;;;0.90;0.65;;;16.50;99.90;;;;;;4372947;32;20076;-79
2022/11/09 12:59:53;;;;;;;0.85;0.40;;;16.50;99.90;;;;;;4356029;32;20608;-80